Aérodrome :
LOGIN :

S'inscrire | Disclaimer

   EN    FR    IT 

 










Légende :    VFR   VFR Marginal   IFR   IFR Intensif   IFR Très Intensif
Visi : 
Plafond : 
>= 8 km
>= 3000ft
5 à 8 km
1000 à 3000 ft
1500m à 5 km
500 à 1000 ft
800 à 1500m
200 à 500 ft
< 800m
< 200 ft
Symboles :   Orages  Brouillard  Fortes neiges  Fortes précipitations  Vent > 20 kt
SIGMETs :   Divers  Orages  Givrage  Turbulence  Onde Orograph.  Cendres Volcan.







- Altitude de l'aérodrome : 464 ft
- Code IATA : EVX
- Voir les cartes d'approche


LFOE - Evreux

DERNIER METAR :
  • 221800Z AUTO 33004KT 280V030 CAVOK 26/13 Q1016 NOSIG

METARs EXPIRÉS :
  • 221730Z AUTO 30006KT CAVOK 26/13 Q1016 NOSIG
  • 221700Z AUTO 29006KT 250V320 CAVOK 27/13 Q1016 NOSIG
  • 221630Z AUTO 28007KT 210V320 CAVOK 26/12 Q1016 NOSIG
  • 221600Z AUTO 24005KT 190V300 CAVOK 26/12 Q1016 NOSIG
  • 221530Z AUTO VRB03KT CAVOK 26/14 Q1016 NOSIG

TAF TAF LFOE
Valide du 22 à 15h jusqu'au 23 à 15h UTC


221400Z 2215/2315 VRB02KT 9999 SCT040
TEMPO 2300/2307 3000 MIFG
Pas de NOTAMs connus pour ce terrain.



MET'MAP, la Météo Aéronautique d'un coup d'oeil ! - Copyright ORBIFLY Décembre 2007 - Disclaimer

ORBIFLY MET'MAP TEAM :

Programmation & Développement : Alexandra Zaïnal
Conception & Développement : Baudouin d'Aumeries
Co-Programmation & Développement : Marc-Olivier Méhu
Soutien technique & logistique : Manuel Goepfert

Contact : metmap@orbifly.com




SOURCES & CREDITS :

   NOAA